Time;durP1;ratioP1;P1;durP2;ratioP2;P2;SDS_P1;SDS_P2;PMS_P1;PMS_P2;Temp;Humidity;BMP_temperature;BMP_pressure;BME280_temperature;BME280_humidity;BME280_pressure;Samples;Min_cycle;Max_cycle;Signal;HPM_P1;HPM_P2
2021/04/08 00:02:22;;;;;;;20.93;6.03;;;12.10;99.90;;;;;;5027735;28;20187;-65
2021/04/08 00:04:57;;;;;;;24.63;5.50;;;12.00;99.90;;;;;;5023870;28;20218;-68
2021/04/08 00:07:25;;;;;;;23.97;5.57;;;12.00;99.90;;;;;;5025124;28;20176;-66
2021/04/08 00:09:53;;;;;;;17.90;5.23;;;11.90;99.90;;;;;;5038305;28;20187;-65
2021/04/08 00:12:21;;;;;;;15.93;4.90;;;11.80;99.90;;;;;;5032249;28;20180;-66
2021/04/08 00:14:49;;;;;;;21.17;4.53;;;11.70;99.90;;;;;;5033570;28;20203;-68
2021/04/08 00:17:17;;;;;;;15.27;4.47;;;11.70;99.90;;;;;;5042765;28;20195;-67
2021/04/08 00:19:45;;;;;;;17.77;5.43;;;11.70;99.90;;;;;;5031042;28;20269;-66
2021/04/08 00:22:14;;;;;;;16.70;4.70;;;11.60;99.90;;;;;;5034839;28;20410;-67
2021/04/08 00:24:43;;;;;;;26.23;4.87;;;11.50;99.90;;;;;;5033750;28;20202;-65
2021/04/08 00:27:11;;;;;;;19.57;4.90;;;11.60;99.90;;;;;;5050299;28;20184;-66
2021/04/08 00:29:39;;;;;;;21.20;5.13;;;11.60;99.90;;;;;;5032725;28;20184;-67
2021/04/08 00:32:08;;;;;;;19.40;4.37;;;11.50;99.90;;;;;;5049899;28;20204;-66
2021/04/08 00:34:38;;;;;;;27.47;6.50;;;11.50;99.90;;;;;;5049416;28;20199;-67
2021/04/08 00:37:05;;;;;;;18.93;4.40;;;11.50;99.90;;;;;;5033598;28;20515;-68
2021/04/08 00:39:31;;;;;;;17.17;4.43;;;11.50;99.90;;;;;;5043384;28;20189;-66
2021/04/08 00:41:58;;;;;;;21.33;5.27;;;11.60;99.90;;;;;;5043908;28;20229;-66
2021/04/08 00:44:24;;;;;;;24.80;5.60;;;11.60;99.90;;;;;;5041460;28;20214;-66
2021/04/08 00:46:51;;;;;;;18.20;4.43;;;11.60;99.90;;;;;;5045350;28;20244;-67
2021/04/08 00:49:17;;;;;;;17.00;4.80;;;11.60;99.90;;;;;;5044981;28;20191;-67
2021/04/08 00:51:43;;;;;;;19.23;5.73;;;11.70;99.90;;;;;;5044334;28;20188;-69
2021/04/08 00:54:10;;;;;;;16.30;5.03;;;11.80;99.90;;;;;;5042679;28;20220;-68
2021/04/08 00:56:37;;;;;;;17.40;4.60;;;11.70;99.90;;;;;;5045437;28;20219;-66
2021/04/08 00:59:03;;;;;;;19.07;4.33;;;11.80;99.90;;;;;;5039435;28;20216;-65
2021/04/08 01:01:30;;;;;;;20.57;5.63;;;11.90;99.90;;;;;;5046928;28;20266;-66
2021/04/08 01:03:56;;;;;;;24.17;5.40;;;11.80;99.90;;;;;;5043141;28;20305;-66
2021/04/08 01:06:23;;;;;;;24.93;5.87;;;11.80;99.90;;;;;;5041064;28;20195;-66
2021/04/08 01:08:50;;;;;;;20.03;6.10;;;11.90;99.90;;;;;;5045760;28;20199;-66
2021/04/08 01:11:16;;;;;;;23.83;6.80;;;12.00;99.90;;;;;;5045471;28;20179;-70
2021/04/08 01:13:44;;;;;;;17.13;6.87;;;11.90;99.90;;;;;;5045626;28;20219;-65
2021/04/08 01:16:41;;;;;;;27.83;7.70;;;11.90;99.90;;;;;;5041479;28;20191;-65
2021/04/08 01:19:52;;;;;;;27.53;7.53;;;12.00;99.90;;;;;;5022324;28;20614;-66
2021/04/08 01:22:53;;;;;;;38.10;9.77;;;11.90;99.90;;;;;;5058477;28;20195;-66
2021/04/08 01:26:06;;;;;;;24.20;6.97;;;12.00;99.90;;;;;;5041452;28;20203;-66
2021/04/08 01:28:39;;;;;;;26.67;7.37;;;12.10;99.90;;;;;;5028700;28;20207;-68
2021/04/08 01:31:11;;;;;;;21.33;6.90;;;12.10;99.90;;;;;;5044787;28;20245;-64
2021/04/08 01:33:51;;;;;;;21.57;5.70;;;12.00;99.90;;;;;;5044996;28;20238;-68
2021/04/08 01:36:27;;;;;;;23.20;5.67;;;12.10;99.90;;;;;;5045767;28;20240;-66
2021/04/08 01:39:10;;;;;;;22.17;5.63;;;12.20;99.90;;;;;;5046201;28;20624;-66
2021/04/08 01:41:41;;;;;;;13.07;5.03;;;12.20;99.90;;;;;;5045448;28;20203;-65
2021/04/08 01:44:16;;;;;;;16.83;4.47;;;12.20;99.90;;;;;;5040763;28;20206;-65
2021/04/08 01:46:49;;;;;;;22.60;4.77;;;12.20;99.90;;;;;;5043197;28;20278;-65
2021/04/08 01:49:19;;;;;;;15.00;4.63;;;12.20;99.90;;;;;;5043663;28;20190;-67
2021/04/08 01:51:46;;;;;;;22.07;3.73;;;12.10;99.90;;;;;;5029181;28;20184;-65
2021/04/08 01:54:15;;;;;;;14.70;4.13;;;12.10;99.90;;;;;;5046040;28;20254;-69
2021/04/08 01:56:44;;;;;;;18.70;4.10;;;12.00;99.90;;;;;;5046250;28;20191;-67
2021/04/08 01:59:14;;;;;;;18.03;4.00;;;12.00;99.90;;;;;;5046229;28;20191;-66
2021/04/08 02:01:43;;;;;;;22.17;4.27;;;11.90;99.90;;;;;;5058351;28;20188;-66
2021/04/08 02:04:13;;;;;;;16.13;4.03;;;11.90;99.90;;;;;;5045932;28;20209;-67
2021/04/08 02:06:43;;;;;;;13.33;4.17;;;11.80;99.90;;;;;;5048329;28;21014;-66
2021/04/08 02:09:11;;;;;;;16.97;4.30;;;11.70;99.90;;;;;;5048580;28;20711;-67
2021/04/08 02:11:39;;;;;;;17.90;4.03;;;11.70;99.90;;;;;;5034347;28;20190;-66
2021/04/08 02:14:09;;;;;;;13.83;3.27;;;11.50;99.90;;;;;;5033301;28;20211;-67
2021/04/08 02:16:38;;;;;;;17.30;3.87;;;11.50;99.90;;;;;;5037103;28;20237;-67
2021/04/08 02:19:08;;;;;;;15.60;3.83;;;11.30;99.90;;;;;;5036735;28;20191;-66
2021/04/08 02:21:34;;;;;;;18.17;4.13;;;11.20;99.90;;;;;;5049198;28;20179;-67
2021/04/08 02:24:02;;;;;;;22.83;4.10;;;11.20;99.90;;;;;;5049967;28;20249;-68
2021/04/08 02:26:30;;;;;;;15.80;4.10;;;11.20;99.90;;;;;;5046551;28;20192;-67
2021/04/08 02:29:00;;;;;;;18.13;3.80;;;11.10;99.90;;;;;;5049991;28;20207;-64
2021/04/08 02:31:30;;;;;;;16.40;4.67;;;10.90;99.90;;;;;;5054133;28;20183;-67
2021/04/08 02:34:00;;;;;;;18.43;4.17;;;10.90;99.90;;;;;;5049734;28;20229;-67
2021/04/08 02:36:26;;;;;;;15.77;5.00;;;10.90;99.90;;;;;;5046127;28;20181;-67
2021/04/08 02:38:52;;;;;;;20.20;5.97;;;10.90;99.90;;;;;;5048842;28;20662;-68
2021/04/08 02:41:20;;;;;;;20.33;6.37;;;10.90;99.90;;;;;;5050512;28;20187;-68
2021/04/08 02:43:46;;;;;;;20.50;6.23;;;10.80;99.90;;;;;;5047837;28;20198;-67
2021/04/08 02:46:13;;;;;;;22.50;7.17;;;10.90;99.90;;;;;;5045651;28;20191;-68
2021/04/08 02:48:40;;;;;;;33.03;9.53;;;10.80;99.90;;;;;;5048739;28;20558;-69
2021/04/08 02:51:54;;;;;;;27.87;6.63;;;10.90;99.90;;;;;;5050252;28;20187;-70
2021/04/08 02:54:30;;;;;;;22.63;4.87;;;10.90;99.90;;;;;;5043458;28;20235;-70
2021/04/08 02:57:00;;;;;;;16.03;4.50;;;10.90;99.90;;;;;;5064306;28;20183;-68
2021/04/08 02:59:44;;;;;;;14.57;3.90;;;10.90;99.90;;;;;;5051177;28;20237;-68
2021/04/08 03:02:17;;;;;;;17.00;4.83;;;11.00;99.90;;;;;;5049221;28;20183;-71
2021/04/08 03:04:55;;;;;;;10.30;3.70;;;10.90;99.90;;;;;;5063232;28;20282;-68
2021/04/08 03:07:30;;;;;;;15.03;4.50;;;10.90;99.90;;;;;;5027813;28;20286;-67
2021/04/08 03:09:59;;;;;;;15.13;4.57;;;10.80;99.90;;;;;;5049420;28;20249;-68
2021/04/08 03:12:29;;;;;;;19.57;4.63;;;10.80;99.90;;;;;;5063143;28;20680;-69
2021/04/08 03:14:57;;;;;;;13.87;4.33;;;10.80;99.90;;;;;;5033790;28;20760;-68
2021/04/08 03:17:28;;;;;;;18.63;4.47;;;10.80;99.90;;;;;;5028709;28;20648;-68
2021/04/08 03:19:58;;;;;;;15.87;4.37;;;10.80;99.90;;;;;;5045284;28;20180;-68
2021/04/08 03:22:27;;;;;;;25.20;5.63;;;10.80;99.90;;;;;;5034888;28;20184;-69
2021/04/08 03:24:57;;;;;;;18.40;6.20;;;10.90;99.90;;;;;;5050568;28;20188;-66
2021/04/08 03:27:30;;;;;;;20.63;4.80;;;11.00;99.90;;;;;;5043194;28;20180;-67
2021/04/08 03:30:03;;;;;;;28.97;4.77;;;11.00;99.90;;;;;;5031565;28;20242;-67
2021/04/08 03:32:31;;;;;;;19.27;5.40;;;10.90;99.90;;;;;;5031389;28;20207;-67
2021/04/08 03:35:00;;;;;;;20.10;5.20;;;10.90;99.90;;;;;;5050481;28;20277;-69
2021/04/08 03:37:28;;;;;;;20.17;5.17;;;10.90;99.90;;;;;;5035421;28;20194;-67
2021/04/08 03:39:55;;;;;;;25.67;5.87;;;10.80;99.90;;;;;;5043053;28;20215;-66
2021/04/08 03:42:24;;;;;;;25.90;6.33;;;10.70;99.90;;;;;;5028819;28;20793;-68
2021/04/08 03:44:51;;;;;;;19.23;5.37;;;10.70;99.90;;;;;;5046701;28;20278;-66
2021/04/08 03:47:21;;;;;;;21.57;4.83;;;10.60;99.90;;;;;;5048835;28;20196;-67
2021/04/08 03:49:51;;;;;;;17.00;4.70;;;10.50;99.90;;;;;;5044876;28;20191;-66
2021/04/08 03:52:20;;;;;;;18.23;5.77;;;10.50;99.90;;;;;;5062993;28;20564;-67
2021/04/08 03:54:52;;;;;;;22.43;6.57;;;10.60;99.90;;;;;;5032885;28;20180;-67
2021/04/08 03:57:24;;;;;;;25.10;6.37;;;10.60;99.90;;;;;;5043856;28;20249;-68
2021/04/08 03:59:52;;;;;;;26.37;5.87;;;10.60;99.90;;;;;;5037851;28;20299;-68
2021/04/08 04:02:22;;;;;;;20.50;6.57;;;10.70;99.90;;;;;;5027479;28;20184;-69
2021/04/08 04:04:53;;;;;;;22.23;7.07;;;10.70;99.90;;;;;;5029684;28;20191;-67
2021/04/08 04:07:21;;;;;;;22.37;7.83;;;10.70;99.90;;;;;;5033379;28;20183;-67
2021/04/08 04:09:49;;;;;;;31.30;8.10;;;10.70;99.90;;;;;;5030587;28;20208;-66
2021/04/08 04:12:18;;;;;;;22.97;8.13;;;10.70;99.90;;;;;;5045503;28;20537;-66
2021/04/08 04:14:47;;;;;;;20.47;7.07;;;10.70;99.90;;;;;;5035711;28;20205;-66
2021/04/08 04:17:41;;;;;;;24.47;7.43;;;10.80;99.90;;;;;;5048179;28;20213;-66
2021/04/08 04:20:09;;;;;;;20.23;6.53;;;10.90;99.90;;;;;;5040354;28;20206;-66
2021/04/08 04:22:39;;;;;;;22.77;6.80;;;10.90;99.90;;;;;;5050898;28;20248;-67
2021/04/08 04:25:13;;;;;;;22.93;5.33;;;11.00;99.90;;;;;;5045411;28;20184;-66
2021/04/08 04:27:42;;;;;;;17.70;4.97;;;11.20;99.90;;;;;;5031580;28;20200;-67
2021/04/08 04:30:11;;;;;;;25.97;5.07;;;11.40;99.90;;;;;;5033644;28;20191;-66
2021/04/08 04:32:45;;;;;;;20.43;5.10;;;11.60;99.90;;;;;;5045029;28;20251;-67
2021/04/08 04:35:16;;;;;;;11.97;3.97;;;11.60;99.90;;;;;;5029151;28;20225;-67
2021/04/08 04:37:47;;;;;;;18.47;4.57;;;11.70;99.90;;;;;;5030474;28;20243;-67
2021/04/08 04:40:16;;;;;;;14.33;4.43;;;11.70;99.90;;;;;;5052289;28;20346;-68
2021/04/08 04:42:44;;;;;;;19.80;5.00;;;11.70;99.90;;;;;;5046114;28;20196;-67
2021/04/08 04:45:15;;;;;;;21.23;4.70;;;11.70;99.90;;;;;;5033406;28;20252;-67
2021/04/08 04:47:49;;;;;;;15.23;4.00;;;11.70;99.90;;;;;;5037022;28;20192;-67
2021/04/08 04:50:17;;;;;;;13.80;3.60;;;11.70;99.90;;;;;;5041522;28;20198;-67
2021/04/08 04:52:48;;;;;;;12.50;4.10;;;11.60;99.90;;;;;;5031277;28;20232;-68
2021/04/08 04:55:15;;;;;;;18.13;4.67;;;11.70;99.90;;;;;;5038008;28;20186;-67
2021/04/08 04:57:43;;;;;;;20.60;4.90;;;11.70;99.90;;;;;;5042051;28;20751;-68
2021/04/08 05:00:12;;;;;;;19.80;5.00;;;11.80;99.90;;;;;;5038127;28;20196;-68
2021/04/08 05:02:39;;;;;;;15.70;4.10;;;12.00;99.90;;;;;;5029302;28;20671;-66
2021/04/08 05:05:11;;;;;;;22.53;4.50;;;12.20;99.90;;;;;;5030237;28;20222;-67
2021/04/08 05:07:39;;;;;;;15.93;3.87;;;12.20;99.90;;;;;;5031793;28;20426;-68
2021/04/08 05:10:08;;;;;;;21.03;4.87;;;12.30;99.90;;;;;;5045848;28;20191;-68
2021/04/08 05:12:36;;;;;;;22.03;4.73;;;12.20;99.90;;;;;;5026601;28;20219;-68
2021/04/08 05:15:06;;;;;;;12.57;4.17;;;12.30;99.90;;;;;;5045141;28;20210;-69
2021/04/08 05:17:39;;;;;;;20.73;4.07;;;12.40;99.90;;;;;;5028816;28;20191;-67
2021/04/08 05:20:10;;;;;;;13.77;4.47;;;12.60;99.90;;;;;;5039013;28;20246;-69
2021/04/08 05:22:39;;;;;;;20.50;4.33;;;12.70;99.90;;;;;;5027397;28;20191;-66
2021/04/08 05:25:08;;;;;;;20.53;4.47;;;12.80;99.90;;;;;;5043447;28;20835;-67
2021/04/08 05:27:35;;;;;;;19.60;4.30;;;12.80;99.90;;;;;;5029312;28;20251;-66
2021/04/08 05:30:04;;;;;;;19.83;4.67;;;12.90;99.90;;;;;;5027300;28;20190;-67
2021/04/08 05:32:31;;;;;;;17.30;4.10;;;13.10;99.90;;;;;;5027647;28;20786;-66
2021/04/08 05:34:58;;;;;;;21.90;5.03;;;13.30;99.90;;;;;;5024583;28;20482;-70
2021/04/08 05:37:25;;;;;;;20.37;4.50;;;13.30;99.90;;;;;;5046994;28;20187;-66
2021/04/08 05:39:53;;;;;;;21.10;4.57;;;13.40;99.90;;;;;;5030016;28;20196;-67
2021/04/08 05:42:20;;;;;;;17.80;4.17;;;13.40;99.90;;;;;;5025079;28;20235;-65
2021/04/08 05:44:48;;;;;;;18.80;4.37;;;13.40;99.90;;;;;;5027981;28;20186;-65
2021/04/08 05:47:17;;;;;;;26.00;4.60;;;13.50;99.90;;;;;;5032689;28;20249;-65
2021/04/08 05:49:45;;;;;;;24.37;4.37;;;13.60;99.90;;;;;;5028131;28;20187;-65
2021/04/08 05:52:13;;;;;;;19.57;4.20;;;13.70;99.90;;;;;;5025904;28;20203;-65
2021/04/08 05:54:41;;;;;;;21.67;4.50;;;13.80;99.90;;;;;;5027295;28;20216;-66
2021/04/08 05:57:12;;;;;;;22.77;5.07;;;13.90;99.90;;;;;;5030189;28;20223;-66
2021/04/08 05:59:40;;;;;;;24.03;4.50;;;13.90;99.90;;;;;;5049338;28;20195;-65
2021/04/08 06:02:07;;;;;;;16.43;4.17;;;13.90;99.90;;;;;;5044585;28;20203;-65
2021/04/08 06:04:37;;;;;;;18.27;4.13;;;13.90;99.90;;;;;;5025582;28;20194;-66
2021/04/08 06:07:05;;;;;;;25.80;4.57;;;13.90;99.90;;;;;;5042837;28;20259;-68
2021/04/08 06:09:35;;;;;;;21.03;4.57;;;14.00;99.90;;;;;;5030285;28;20856;-67
2021/04/08 06:12:02;;;;;;;22.13;4.43;;;14.10;99.90;;;;;;5035392;28;20336;-67
2021/04/08 06:14:37;;;;;;;23.07;3.40;;;14.10;99.90;;;;;;5030087;28;21148;-69
2021/04/08 06:17:09;;;;;;;15.07;3.30;;;14.20;99.90;;;;;;5044177;28;20910;-67
2021/04/08 06:19:37;;;;;;;19.50;3.80;;;14.30;99.90;;;;;;5027062;28;21085;-67
2021/04/08 06:22:04;;;;;;;22.63;4.30;;;14.40;99.90;;;;;;5034588;28;20600;-67
2021/04/08 06:24:31;;;;;;;13.93;3.60;;;14.40;99.90;;;;;;5042087;28;20273;-68
2021/04/08 06:27:00;;;;;;;22.57;3.70;;;14.50;99.90;;;;;;5031540;28;20202;-67
2021/04/08 06:29:29;;;;;;;22.43;4.63;;;14.50;99.90;;;;;;5023967;28;20229;-67
2021/04/08 06:32:01;;;;;;;16.70;4.10;;;14.60;99.90;;;;;;5044783;28;20211;-65
2021/04/08 06:34:30;;;;;;;27.60;4.50;;;14.70;99.90;;;;;;5027543;28;20222;-67
2021/04/08 06:36:58;;;;;;;20.63;4.57;;;14.70;99.90;;;;;;5028520;28;20616;-68
2021/04/08 06:39:27;;;;;;;17.97;3.97;;;14.70;99.90;;;;;;5036939;28;20183;-67
2021/04/08 06:41:55;;;;;;;15.77;3.83;;;14.80;99.90;;;;;;5037847;28;20192;-70
2021/04/08 06:44:27;;;;;;;27.00;4.97;;;14.90;99.90;;;;;;5040850;28;20203;-69
2021/04/08 06:47:02;;;;;;;23.13;4.83;;;14.90;99.90;;;;;;5038002;28;20195;-67
2021/04/08 06:49:49;;;;;;;22.30;4.40;;;14.90;99.90;;;;;;5042774;28;20183;-67
2021/04/08 06:52:19;;;;;;;22.43;4.33;;;15.00;99.90;;;;;;5042177;28;20191;-66
2021/04/08 06:54:48;;;;;;;16.23;3.73;;;15.10;99.90;;;;;;5035766;28;20226;-66
2021/04/08 06:57:20;;;;;;;17.27;4.13;;;15.10;99.90;;;;;;5027488;28;20283;-68
2021/04/08 06:59:49;;;;;;;26.47;4.57;;;15.10;99.90;;;;;;5036086;28;20285;-67
2021/04/08 07:02:20;;;;;;;22.53;4.90;;;15.20;99.90;;;;;;5030636;28;20640;-67
2021/04/08 07:04:49;;;;;;;19.10;3.87;;;15.20;99.90;;;;;;5025544;28;20180;-65
2021/04/08 07:07:18;;;;;;;16.23;4.00;;;15.30;99.90;;;;;;5035601;28;20580;-66
2021/04/08 07:09:48;;;;;;;19.83;4.33;;;15.20;99.90;;;;;;5033354;28;20179;-65
2021/04/08 07:12:17;;;;;;;15.80;3.63;;;15.30;99.90;;;;;;5062490;28;20222;-65
2021/04/08 07:14:46;;;;;;;18.47;3.77;;;15.30;99.90;;;;;;5047212;28;20295;-65
2021/04/08 07:17:14;;;;;;;28.57;4.90;;;15.30;99.90;;;;;;5044705;28;20180;-65
2021/04/08 07:19:43;;;;;;;20.10;4.50;;;15.20;99.90;;;;;;5062202;28;20198;-68
2021/04/08 07:22:17;;;;;;;20.17;4.37;;;15.20;99.90;;;;;;5044910;28;20192;-66
2021/04/08 07:24:47;;;;;;;19.83;4.53;;;15.50;99.90;;;;;;5045172;28;20225;-65
2021/04/08 07:27:22;;;;;;;15.73;3.80;;;15.60;99.90;;;;;;5036111;28;20206;-65
2021/04/08 07:30:00;;;;;;;17.90;4.20;;;15.80;99.90;;;;;;5027829;28;20434;-67
2021/04/08 07:32:33;;;;;;;25.33;4.23;;;16.00;99.90;;;;;;5035282;28;20204;-64
2021/04/08 07:35:18;;;;;;;17.20;3.63;;;16.00;99.90;;;;;;5025239;28;20337;-69
2021/04/08 07:37:59;;;;;;;17.73;4.20;;;16.00;99.90;;;;;;5047267;28;20245;-67
2021/04/08 07:40:28;;;;;;;24.33;4.17;;;16.10;99.90;;;;;;5019552;28;20190;-66
2021/04/08 07:42:56;;;;;;;18.90;3.97;;;16.20;99.90;;;;;;5025257;28;20668;-67
2021/04/08 07:45:34;;;;;;;29.30;4.20;;;16.20;99.90;;;;;;5030512;28;20195;-65
2021/04/08 07:48:06;;;;;;;21.93;4.80;;;16.30;99.90;;;;;;5044256;28;20191;-65
2021/04/08 07:50:38;;;;;;;14.57;3.30;;;16.40;99.90;;;;;;5042695;28;20269;-66
2021/04/08 07:53:06;;;;;;;20.03;4.27;;;16.50;99.90;;;;;;5043058;28;20305;-65
2021/04/08 07:55:33;;;;;;;18.10;3.70;;;16.60;99.90;;;;;;5045662;28;20184;-66
2021/04/08 07:58:16;;;;;;;21.80;4.40;;;16.60;99.90;;;;;;5029519;28;20180;-66
2021/04/08 08:00:50;;;;;;;19.70;3.53;;;16.70;99.90;;;;;;5028307;28;20195;-65
2021/04/08 08:03:25;;;;;;;15.43;3.50;;;16.90;99.90;;;;;;5032939;28;20188;-65
2021/04/08 08:06:00;;;;;;;21.77;4.30;;;16.80;99.90;;;;;;5034804;28;20190;-67
2021/04/08 08:08:43;;;;;;;26.20;4.57;;;16.80;99.90;;;;;;5025832;28;20745;-66
2021/04/08 08:11:16;;;;;;;22.93;4.07;;;16.90;99.90;;;;;;5042624;28;20214;-68
2021/04/08 08:13:56;;;;;;;19.27;4.10;;;17.00;99.90;;;;;;5045521;28;20216;-68
2021/04/08 08:16:27;;;;;;;20.73;4.60;;;17.20;99.90;;;;;;5042835;28;20197;-64
2021/04/08 08:18:59;;;;;;;21.07;3.93;;;17.10;99.90;;;;;;5028585;28;20184;-64
2021/04/08 08:21:40;;;;;;;20.93;4.17;;;17.00;99.90;;;;;;5028719;28;20632;-64
2021/04/08 08:24:11;;;;;;;23.33;4.70;;;17.10;99.90;;;;;;5029708;28;20283;-67
2021/04/08 08:26:46;;;;;;;18.60;3.53;;;17.20;99.90;;;;;;5025195;28;20184;-64
2021/04/08 08:29:25;;;;;;;22.67;4.50;;;17.30;99.90;;;;;;5030274;28;20195;-67
2021/04/08 08:31:54;;;;;;;22.63;4.20;;;17.30;99.90;;;;;;5046808;28;20196;-66
2021/04/08 08:34:32;;;;;;;17.73;3.60;;;17.30;99.90;;;;;;5029090;28;20230;-67
2021/04/08 08:37:08;;;;;;;16.47;3.63;;;17.40;99.90;;;;;;5027188;28;20338;-68
2021/04/08 08:39:43;;;;;;;14.60;3.80;;;17.30;99.90;;;;;;5042749;28;20195;-67
2021/04/08 08:42:21;;;;;;;17.13;3.97;;;17.40;99.90;;;;;;5043079;28;20223;-68
2021/04/08 08:44:50;;;;;;;21.67;3.93;;;17.50;99.90;;;;;;5043455;28;20198;-66
2021/04/08 08:47:37;;;;;;;14.00;3.43;;;17.70;99.90;;;;;;5061255;28;20838;-66
2021/04/08 08:50:11;;;;;;;15.63;3.10;;;17.80;99.90;;;;;;5028754;28;20203;-67
2021/04/08 08:52:47;;;;;;;25.90;4.33;;;17.60;99.90;;;;;;5047111;28;20263;-68
2021/04/08 08:55:23;;;;;;;16.50;3.50;;;17.60;99.90;;;;;;5045752;28;20178;-67
2021/04/08 08:57:57;;;;;;;23.23;4.07;;;17.50;99.90;;;;;;5027588;28;20195;-65
2021/04/08 09:00:32;;;;;;;18.23;3.80;;;17.70;99.90;;;;;;5034067;28;20240;-65
2021/04/08 09:03:04;;;;;;;19.60;3.87;;;17.90;99.90;;;;;;5033221;28;20190;-65
2021/04/08 09:05:36;;;;;;;17.73;3.97;;;17.90;99.90;;;;;;5026614;28;20333;-67
2021/04/08 09:08:24;;;;;;;15.13;3.60;;;18.00;99.90;;;;;;5041817;28;20183;-66
2021/04/08 09:10:53;;;;;;;13.87;3.27;;;18.20;99.90;;;;;;5029785;28;20183;-67
2021/04/08 09:13:27;;;;;;;21.37;3.93;;;18.30;99.90;;;;;;5041665;28;20247;-64
2021/04/08 09:16:00;;;;;;;22.90;4.23;;;18.30;99.90;;;;;;5025324;28;20738;-64
2021/04/08 09:18:28;;;;;;;20.63;4.23;;;18.40;99.90;;;;;;5041444;28;20678;-67
2021/04/08 09:20:55;;;;;;;23.10;3.90;;;18.50;99.90;;;;;;5041485;28;20187;-67
2021/04/08 09:23:23;;;;;;;19.07;3.83;;;18.50;99.90;;;;;;5042168;28;20253;-69
2021/04/08 09:26:01;;;;;;;15.70;3.70;;;18.50;99.90;;;;;;5044508;28;20219;-69
2021/04/08 09:28:40;;;;;;;18.13;3.93;;;18.70;99.90;;;;;;5040699;28;20208;-69
2021/04/08 09:31:09;;;;;;;17.97;3.97;;;18.70;99.90;;;;;;5046056;28;20195;-67
2021/04/08 09:36:20;;;;;;;18.63;4.03;;;18.90;99.90;;;;;;5043574;28;20793;-67
2021/04/08 09:38:56;;;;;;;15.93;3.83;;;18.90;99.90;;;;;;5042559;28;20270;-65
2021/04/08 09:41:44;;;;;;;16.57;2.93;;;19.00;99.90;;;;;;5027203;28;20195;-67
2021/04/08 09:44:16;;;;;;;17.93;3.23;;;18.70;99.90;;;;;;5039031;28;20211;-67
2021/04/08 09:46:53;;;;;;;20.23;3.73;;;18.90;99.90;;;;;;5043583;28;20200;-67
2021/04/08 09:49:42;;;;;;;18.80;3.77;;;19.10;99.90;;;;;;5030573;28;20203;-67
2021/04/08 09:52:15;;;;;;;13.03;3.40;;;19.20;99.90;;;;;;5056858;28;20192;-66
2021/04/08 09:54:59;;;;;;;20.03;3.57;;;19.30;99.90;;;;;;5028552;28;20212;-66
2021/04/08 09:57:41;;;;;;;18.90;3.53;;;19.40;99.90;;;;;;5026836;28;20191;-66
2021/04/08 10:00:13;;;;;;;17.40;3.57;;;19.70;99.90;;;;;;5039854;28;20811;-65
2021/04/08 10:03:06;;;;;;;18.27;3.60;;;19.80;99.90;;;;;;5034083;28;20279;-64
2021/04/08 10:05:38;;;;;;;19.27;3.80;;;19.80;99.90;;;;;;5021017;28;20187;-65
2021/04/08 10:08:10;;;;;;;10.13;2.90;;;20.20;99.90;;;;;;5055512;28;20647;-66
2021/04/08 10:10:38;;;;;;;14.80;3.77;;;20.20;99.90;;;;;;5040906;28;20932;-67
2021/04/08 10:13:17;;;;;;;15.97;3.33;;;20.40;99.90;;;;;;5031651;28;20216;-65
2021/04/08 10:15:46;;;;;;;15.90;3.87;;;20.20;99.90;;;;;;5042142;28;20192;-65
2021/04/08 10:18:20;;;;;;;15.50;3.77;;;20.30;99.90;;;;;;5040169;28;20217;-67
2021/04/08 10:20:51;;;;;;;15.83;4.17;;;20.30;99.90;;;;;;5025390;28;20179;-70
2021/04/08 10:23:35;;;;;;;15.70;4.23;;;20.70;99.90;;;;;;5041973;28;20681;-64
2021/04/08 10:26:15;;;;;;;23.10;4.07;;;20.70;99.90;;;;;;5048221;28;20199;-65
2021/04/08 10:28:57;;;;;;;16.70;4.00;;;20.70;99.90;;;;;;5030333;28;20205;-69
2021/04/08 10:31:36;;;;;;;25.30;3.70;;;20.40;99.90;;;;;;5045420;28;20196;-63
2021/04/08 10:34:18;;;;;;;19.53;4.40;;;20.60;99.90;;;;;;5062982;28;20618;-66
2021/04/08 10:36:58;;;;;;;21.83;4.10;;;20.20;99.90;;;;;;5030809;28;20226;-69
2021/04/08 10:39:33;;;;;;;23.13;3.60;;;20.40;99.90;;;;;;5046873;28;20297;-65
2021/04/08 10:42:04;;;;;;;16.60;4.07;;;20.70;99.90;;;;;;5050365;28;20199;-65
2021/04/08 10:44:48;;;;;;;21.40;4.23;;;20.90;99.90;;;;;;5064238;28;20206;-67
2021/04/08 10:47:22;;;;;;;13.00;3.93;;;20.90;99.90;;;;;;5049040;28;20816;-63
2021/04/08 10:49:51;;;;;;;15.93;3.40;;;20.90;99.90;;;;;;5043224;28;20226;-63
2021/04/08 10:52:28;;;;;;;16.50;4.17;;;20.90;99.90;;;;;;5046035;28;20674;-68
2021/04/08 10:55:07;;;;;;;20.10;3.27;;;21.00;99.90;;;;;;5042966;28;20215;-66
2021/04/08 10:57:35;;;;;;;18.90;3.83;;;21.00;99.90;;;;;;5044854;28;20187;-67
2021/04/08 11:00:07;;;;;;;10.87;3.77;;;21.00;99.90;;;;;;5047836;28;20286;-66
2021/04/08 11:02:41;;;;;;;21.23;3.87;;;21.00;99.90;;;;;;5042434;28;20326;-65
2021/04/08 11:05:24;;;;;;;15.73;3.27;;;20.80;99.90;;;;;;5033295;28;20433;-64
2021/04/08 11:07:59;;;;;;;15.47;3.93;;;20.80;99.90;;;;;;5031360;28;20244;-68
2021/04/08 11:10:32;;;;;;;17.60;3.43;;;20.90;99.90;;;;;;5031011;28;20229;-67
2021/04/08 11:13:01;;;;;;;19.63;4.20;;;20.80;99.90;;;;;;5039786;28;20211;-66
2021/04/08 11:15:31;;;;;;;19.20;4.27;;;20.50;99.90;;;;;;5045956;28;20242;-67
2021/04/08 11:18:11;;;;;;;12.47;3.57;;;20.40;99.90;;;;;;5060244;28;20275;-65
2021/04/08 11:20:45;;;;;;;19.20;4.17;;;20.60;99.90;;;;;;5046279;28;20579;-66
2021/04/08 11:23:17;;;;;;;12.30;3.53;;;20.60;99.90;;;;;;5028709;28;20190;-65
2021/04/08 11:26:03;;;;;;;18.97;3.73;;;20.60;99.90;;;;;;5050037;28;20863;-66
2021/04/08 11:28:32;;;;;;;19.77;4.27;;;20.60;99.90;;;;;;5047988;28;20195;-67
2021/04/08 11:31:11;;;;;;;17.93;3.40;;;20.50;99.90;;;;;;5028202;28;20715;-64
2021/04/08 11:33:38;;;;;;;18.80;3.60;;;20.50;99.90;;;;;;5029475;28;20247;-64
2021/04/08 11:36:21;;;;;;;15.07;4.30;;;20.60;99.90;;;;;;5024686;28;20286;-66
2021/04/08 11:38:48;;;;;;;16.53;3.67;;;20.50;99.90;;;;;;5042508;28;20191;-67
2021/04/08 11:41:15;;;;;;;16.90;3.50;;;20.60;99.90;;;;;;5041430;28;20864;-69
2021/04/08 11:43:42;;;;;;;17.40;3.67;;;20.40;99.90;;;;;;5039463;28;20187;-66
2021/04/08 11:46:32;;;;;;;18.07;3.93;;;19.80;99.90;;;;;;5045825;28;20192;-67
2021/04/08 11:49:00;;;;;;;15.23;3.83;;;19.80;99.90;;;;;;5025786;28;20191;-66
2021/04/08 11:51:31;;;;;;;21.50;4.00;;;19.90;99.90;;;;;;5019812;28;20195;-68
2021/04/08 11:54:13;;;;;;;14.20;3.27;;;20.10;99.90;;;;;;5041685;28;20210;-66
2021/04/08 11:56:41;;;;;;;15.33;3.30;;;20.30;99.90;;;;;;5043390;28;20223;-65
2021/04/08 11:59:10;;;;;;;19.23;4.07;;;20.40;99.90;;;;;;5041878;28;20207;-65
2021/04/08 12:01:44;;;;;;;22.70;4.30;;;20.60;99.90;;;;;;5026089;28;20195;-63
2021/04/08 12:04:17;;;;;;;17.27;3.87;;;20.50;99.90;;;;;;5043845;28;20601;-66
2021/04/08 12:06:50;;;;;;;20.80;4.00;;;20.40;99.90;;;;;;5058856;28;20272;-65
2021/04/08 12:09:17;;;;;;;22.30;4.27;;;20.50;99.90;;;;;;5017668;28;20191;-65
2021/04/08 12:11:56;;;;;;;27.17;4.40;;;20.50;99.90;;;;;;5025052;28;20188;-64
2021/04/08 12:14:23;;;;;;;18.30;4.03;;;20.50;99.90;;;;;;5038617;28;20708;-64
2021/04/08 12:17:09;;;;;;;17.13;4.00;;;20.60;99.90;;;;;;5046309;28;20264;-66
2021/04/08 12:19:37;;;;;;;20.07;4.23;;;20.60;99.90;;;;;;5028082;28;20218;-66
2021/04/08 12:22:11;;;;;;;13.53;3.77;;;20.20;99.90;;;;;;5024646;28;20192;-64
2021/04/08 12:24:40;;;;;;;16.40;3.73;;;20.30;99.90;;;;;;5043911;28;20306;-66
2021/04/08 12:27:22;;;;;;;18.13;4.30;;;20.40;99.90;;;;;;5046619;28;20188;-64
2021/04/08 12:29:50;;;;;;;15.20;4.37;;;20.30;99.90;;;;;;5029459;28;20249;-66
2021/04/08 12:40:21;;;;;;;15.53;3.67;;;19.50;99.90;;;;;;5044284;28;20207;-67
2021/04/08 12:43:15;;;;;;;14.87;3.63;;;19.80;99.90;;;;;;5026389;28;20192;-66
2021/04/08 12:45:42;;;;;;;18.73;4.03;;;19.90;99.90;;;;;;5025628;28;20267;-65
2021/04/08 12:51:51;;;;;;;19.63;3.60;;;19.80;99.90;;;;;;5044981;28;20211;-66
2021/04/08 13:13:56;;;;;;;21.67;4.23;;;19.80;99.90;;;;;;5038819;28;20653;-67
2021/04/08 13:17:22;;;;;;;16.37;3.90;;;19.80;99.90;;;;;;5042082;28;20191;-68
2021/04/08 13:19:48;;;;;;;16.03;4.00;;;19.50;99.90;;;;;;5038009;28;20613;-67
2021/04/08 13:22:15;;;;;;;16.53;3.27;;;19.60;99.90;;;;;;5046228;28;20236;-66
2021/04/08 13:24:42;;;;;;;15.03;3.33;;;19.60;99.90;;;;;;5041550;28;20188;-66
2021/04/08 13:27:08;;;;;;;19.50;3.80;;;19.60;99.90;;;;;;5049024;28;20669;-69
2021/04/08 13:29:36;;;;;;;15.93;4.07;;;19.40;99.90;;;;;;5042408;28;20770;-69
2021/04/08 13:32:07;;;;;;;15.93;3.70;;;19.30;99.90;;;;;;5032608;28;20215;-67
2021/04/08 13:34:34;;;;;;;15.53;3.50;;;19.40;99.90;;;;;;5043396;28;20216;-66
2021/04/08 13:37:02;;;;;;;19.20;3.97;;;19.40;99.90;;;;;;5037917;28;20271;-69